< < Back
Terminal Aerodrome Forecast


Current Version              Previous Versions:   1  2  3  4  5  6  7  8  9  

Terminal Aerodrome Forecast

004
FTUS42 KGSP 192050 AAA
TAFCLT
TAF AMD
KCLT 192050Z 1921/2018 01003KT P6SM BKN250
     FM200100 08003KT P6SM FEW070 OVC150
     FM200900 06003KT P6SM OVC050 PROB30 2011/2015 -RA BKN035=



Latest METAR

607
SAUS70 KWBC 200400 RRA
MTRCLT
METAR KCLT 200352Z VRB04KT 10SM BKN180 OVC250 09/M03 A3017 RMK AO2
SLP214 T00891033


USA.gov is the U.S. government's official web portal to all federal, state and local government web resources and services.